sensor_id;sensor_type;location;lat;lon;timestamp;P1;durP1;ratioP1;P2;durP2;ratioP2
64684;SDS011;51109;47.414;18.954;2022-12-18T00:01:18;13.73;;;7.40;;
64684;SDS011;51109;47.414;18.954;2022-12-18T00:03:45;8.25;;;4.22;;
64684;SDS011;51109;47.414;18.954;2022-12-18T00:06:12;7.63;;;4.47;;
64684;SDS011;51109;47.414;18.954;2022-12-18T00:08:39;13.95;;;4.88;;
64684;SDS011;51109;47.414;18.954;2022-12-18T00:11:10;8.73;;;5.45;;
64684;SDS011;51109;47.414;18.954;2022-12-18T00:13:38;8.23;;;4.07;;
64684;SDS011;51109;47.414;18.954;2022-12-18T00:16:05;18.35;;;6.75;;
64684;SDS011;51109;47.414;18.954;2022-12-18T00:18:36;10.55;;;5.07;;
64684;SDS011;51109;47.414;18.954;2022-12-18T00:21:03;21.40;;;8.95;;
64684;SDS011;51109;47.414;18.954;2022-12-18T00:23:30;8.68;;;5.53;;
64684;SDS011;51109;47.414;18.954;2022-12-18T00:26:00;19.05;;;6.05;;
64684;SDS011;51109;47.414;18.954;2022-12-18T00:28:27;13.13;;;5.75;;
64684;SDS011;51109;47.414;18.954;2022-12-18T00:31:03;7.25;;;3.30;;
64684;SDS011;51109;47.414;18.954;2022-12-18T00:33:31;8.68;;;5.32;;
64684;SDS011;51109;47.414;18.954;2022-12-18T00:36:07;7.03;;;4.03;;
64684;SDS011;51109;47.414;18.954;2022-12-18T00:38:39;9.98;;;4.22;;
64684;SDS011;51109;47.414;18.954;2022-12-18T00:41:06;23.02;;;7.03;;
64684;SDS011;51109;47.414;18.954;2022-12-18T00:43:35;17.67;;;8.43;;
64684;SDS011;51109;47.414;18.954;2022-12-18T00:46:01;13.40;;;5.85;;
64684;SDS011;51109;47.414;18.954;2022-12-18T00:48:27;24.10;;;6.20;;
64684;SDS011;51109;47.414;18.954;2022-12-18T00:50:54;14.93;;;4.47;;
64684;SDS011;51109;47.414;18.954;2022-12-18T00:53:20;18.67;;;7.78;;
64684;SDS011;51109;47.414;18.954;2022-12-18T00:55:46;8.63;;;4.50;;
64684;SDS011;51109;47.414;18.954;2022-12-18T00:58:13;20.58;;;7.22;;
64684;SDS011;51109;47.414;18.954;2022-12-18T01:00:41;17.33;;;6.00;;
64684;SDS011;51109;47.414;18.954;2022-12-18T01:03:09;9.30;;;4.05;;
64684;SDS011;51109;47.414;18.954;2022-12-18T01:05:41;15.27;;;6.70;;
64684;SDS011;51109;47.414;18.954;2022-12-18T01:08:08;16.00;;;3.83;;
64684;SDS011;51109;47.414;18.954;2022-12-18T01:10:34;14.18;;;4.85;;
64684;SDS011;51109;47.414;18.954;2022-12-18T01:13:00;14.45;;;4.13;;
64684;SDS011;51109;47.414;18.954;2022-12-18T01:15:26;8.73;;;5.50;;
64684;SDS011;51109;47.414;18.954;2022-12-18T01:17:52;5.03;;;4.65;;
64684;SDS011;51109;47.414;18.954;2022-12-18T01:20:18;11.23;;;6.82;;
64684;SDS011;51109;47.414;18.954;2022-12-18T01:22:44;20.13;;;6.68;;
64684;SDS011;51109;47.414;18.954;2022-12-18T01:25:10;13.10;;;4.35;;
64684;SDS011;51109;47.414;18.954;2022-12-18T01:27:36;4.10;;;3.30;;
64684;SDS011;51109;47.414;18.954;2022-12-18T01:30:02;6.53;;;5.55;;
64684;SDS011;51109;47.414;18.954;2022-12-18T01:32:29;15.13;;;6.80;;
64684;SDS011;51109;47.414;18.954;2022-12-18T01:34:55;12.27;;;4.95;;
64684;SDS011;51109;47.414;18.954;2022-12-18T01:37:21;12.18;;;5.32;;
64684;SDS011;51109;47.414;18.954;2022-12-18T01:39:47;15.05;;;6.22;;
64684;SDS011;51109;47.414;18.954;2022-12-18T01:42:15;7.68;;;3.92;;
64684;SDS011;51109;47.414;18.954;2022-12-18T01:47:50;10.90;;;5.13;;
64684;SDS011;51109;47.414;18.954;2022-12-18T01:50:21;6.80;;;4.25;;
64684;SDS011;51109;47.414;18.954;2022-12-18T01:55:32;7.45;;;4.60;;
64684;SDS011;51109;47.414;18.954;2022-12-18T01:58:07;20.05;;;6.00;;
64684;SDS011;51109;47.414;18.954;2022-12-18T02:03:00;2.60;;;2.40;;
64684;SDS011;51109;47.414;18.954;2022-12-18T02:10:57;9.52;;;5.85;;
64684;SDS011;51109;47.414;18.954;2022-12-18T02:13:36;6.32;;;4.70;;
64684;SDS011;51109;47.414;18.954;2022-12-18T02:18:38;5.72;;;5.20;;
64684;SDS011;51109;47.414;18.954;2022-12-18T02:23:47;6.93;;;5.32;;
64684;SDS011;51109;47.414;18.954;2022-12-18T02:29:11;7.35;;;6.30;;
64684;SDS011;51109;47.414;18.954;2022-12-18T02:31:51;11.73;;;4.78;;
64684;SDS011;51109;47.414;18.954;2022-12-18T02:34:20;13.70;;;5.53;;
64684;SDS011;51109;47.414;18.954;2022-12-18T02:36:49;14.50;;;6.18;;
64684;SDS011;51109;47.414;18.954;2022-12-18T02:39:16;16.40;;;8.45;;
64684;SDS011;51109;47.414;18.954;2022-12-18T02:41:44;10.85;;;6.22;;
64684;SDS011;51109;47.414;18.954;2022-12-18T02:44:11;18.58;;;6.93;;
64684;SDS011;51109;47.414;18.954;2022-12-18T02:46:42;21.98;;;8.77;;
64684;SDS011;51109;47.414;18.954;2022-12-18T02:49:26;26.20;;;6.63;;
64684;SDS011;51109;47.414;18.954;2022-12-18T02:51:59;10.10;;;4.80;;
64684;SDS011;51109;47.414;18.954;2022-12-18T02:57:50;12.93;;;4.47;;
64684;SDS011;51109;47.414;18.954;2022-12-18T03:00:23;22.95;;;8.82;;
64684;SDS011;51109;47.414;18.954;2022-12-18T03:02:59;10.35;;;7.80;;
64684;SDS011;51109;47.414;18.954;2022-12-18T03:05:41;6.00;;;4.43;;
64684;SDS011;51109;47.414;18.954;2022-12-18T03:08:21;6.88;;;2.90;;
64684;SDS011;51109;47.414;18.954;2022-12-18T03:10:51;8.38;;;5.35;;
64684;SDS011;51109;47.414;18.954;2022-12-18T03:13:30;8.13;;;6.13;;
64684;SDS011;51109;47.414;18.954;2022-12-18T03:15:58;4.70;;;3.63;;
64684;SDS011;51109;47.414;18.954;2022-12-18T03:18:30;13.82;;;5.80;;
64684;SDS011;51109;47.414;18.954;2022-12-18T03:21:05;13.35;;;5.90;;
64684;SDS011;51109;47.414;18.954;2022-12-18T03:23:37;6.82;;;5.20;;
64684;SDS011;51109;47.414;18.954;2022-12-18T03:26:10;6.82;;;4.50;;
64684;SDS011;51109;47.414;18.954;2022-12-18T03:28:41;17.70;;;4.68;;
64684;SDS011;51109;47.414;18.954;2022-12-18T03:31:11;1.83;;;1.77;;
64684;SDS011;51109;47.414;18.954;2022-12-18T03:33:45;5.88;;;2.85;;
64684;SDS011;51109;47.414;18.954;2022-12-18T03:36:31;3.05;;;2.85;;
64684;SDS011;51109;47.414;18.954;2022-12-18T03:38:57;2.05;;;1.52;;
64684;SDS011;51109;47.414;18.954;2022-12-18T03:41:31;8.65;;;2.10;;
64684;SDS011;51109;47.414;18.954;2022-12-18T03:44:13;5.63;;;4.13;;
64684;SDS011;51109;47.414;18.954;2022-12-18T03:50:39;16.08;;;5.75;;
64684;SDS011;51109;47.414;18.954;2022-12-18T03:52:56;13.15;;;6.18;;
64684;SDS011;51109;47.414;18.954;2022-12-18T03:55:35;10.02;;;5.45;;
64684;SDS011;51109;47.414;18.954;2022-12-18T03:58:02;14.60;;;7.20;;
64684;SDS011;51109;47.414;18.954;2022-12-18T04:00:31;16.98;;;5.22;;
64684;SDS011;51109;47.414;18.954;2022-12-18T04:02:58;7.40;;;4.07;;
64684;SDS011;51109;47.414;18.954;2022-12-18T04:05:26;15.52;;;7.32;;
64684;SDS011;51109;47.414;18.954;2022-12-18T04:07:54;14.85;;;6.20;;
64684;SDS011;51109;47.414;18.954;2022-12-18T04:10:22;9.90;;;3.72;;
64684;SDS011;51109;47.414;18.954;2022-12-18T04:12:48;6.20;;;4.45;;
64684;SDS011;51109;47.414;18.954;2022-12-18T04:15:13;7.13;;;4.55;;
64684;SDS011;51109;47.414;18.954;2022-12-18T04:17:43;4.75;;;4.20;;
64684;SDS011;51109;47.414;18.954;2022-12-18T04:20:13;6.80;;;3.10;;
64684;SDS011;51109;47.414;18.954;2022-12-18T04:22:39;13.73;;;4.93;;
64684;SDS011;51109;47.414;18.954;2022-12-18T04:25:05;3.58;;;2.92;;
64684;SDS011;51109;47.414;18.954;2022-12-18T04:27:32;12.18;;;6.10;;
64684;SDS011;51109;47.414;18.954;2022-12-18T04:29:57;9.88;;;3.70;;
64684;SDS011;51109;47.414;18.954;2022-12-18T04:32:23;8.75;;;4.95;;
64684;SDS011;51109;47.414;18.954;2022-12-18T04:34:49;2.15;;;2.03;;
64684;SDS011;51109;47.414;18.954;2022-12-18T04:37:16;10.88;;;3.75;;
64684;SDS011;51109;47.414;18.954;2022-12-18T04:39:42;15.80;;;4.13;;
64684;SDS011;51109;47.414;18.954;2022-12-18T04:42:07;11.88;;;5.93;;
64684;SDS011;51109;47.414;18.954;2022-12-18T04:44:33;10.80;;;5.20;;
64684;SDS011;51109;47.414;18.954;2022-12-18T04:46:59;3.72;;;2.10;;
64684;SDS011;51109;47.414;18.954;2022-12-18T04:49:25;3.38;;;3.22;;
64684;SDS011;51109;47.414;18.954;2022-12-18T04:51:51;6.43;;;3.85;;
64684;SDS011;51109;47.414;18.954;2022-12-18T04:54:21;4.53;;;2.03;;
64684;SDS011;51109;47.414;18.954;2022-12-18T04:56:46;12.93;;;5.72;;
64684;SDS011;51109;47.414;18.954;2022-12-18T04:59:12;16.60;;;4.82;;
64684;SDS011;51109;47.414;18.954;2022-12-18T05:01:38;9.77;;;4.47;;
64684;SDS011;51109;47.414;18.954;2022-12-18T05:04:04;7.50;;;4.15;;
64684;SDS011;51109;47.414;18.954;2022-12-18T05:06:30;17.55;;;5.90;;
64684;SDS011;51109;47.414;18.954;2022-12-18T05:08:56;3.80;;;3.53;;
64684;SDS011;51109;47.414;18.954;2022-12-18T05:11:22;19.77;;;7.00;;
64684;SDS011;51109;47.414;18.954;2022-12-18T05:13:49;8.85;;;5.70;;
64684;SDS011;51109;47.414;18.954;2022-12-18T05:16:15;9.75;;;4.75;;
64684;SDS011;51109;47.414;18.954;2022-12-18T05:18:41;8.15;;;4.85;;
64684;SDS011;51109;47.414;18.954;2022-12-18T05:21:07;9.70;;;4.10;;
64684;SDS011;51109;47.414;18.954;2022-12-18T05:23:33;10.93;;;4.07;;
64684;SDS011;51109;47.414;18.954;2022-12-18T05:26:01;8.38;;;3.75;;
64684;SDS011;51109;47.414;18.954;2022-12-18T05:28:29;20.00;;;8.77;;
64684;SDS011;51109;47.414;18.954;2022-12-18T05:30:56;9.30;;;5.57;;
64684;SDS011;51109;47.414;18.954;2022-12-18T05:33:24;6.32;;;4.80;;
64684;SDS011;51109;47.414;18.954;2022-12-18T05:35:52;15.15;;;5.18;;
64684;SDS011;51109;47.414;18.954;2022-12-18T05:38:19;12.27;;;6.03;;
64684;SDS011;51109;47.414;18.954;2022-12-18T05:40:50;12.95;;;5.63;;
64684;SDS011;51109;47.414;18.954;2022-12-18T05:43:16;7.38;;;3.35;;
64684;SDS011;51109;47.414;18.954;2022-12-18T05:45:44;2.08;;;1.95;;
64684;SDS011;51109;47.414;18.954;2022-12-18T05:48:11;6.35;;;4.70;;
64684;SDS011;51109;47.414;18.954;2022-12-18T05:50:38;9.15;;;4.40;;
64684;SDS011;51109;47.414;18.954;2022-12-18T05:53:05;5.72;;;3.95;;
64684;SDS011;51109;47.414;18.954;2022-12-18T05:55:35;5.25;;;2.00;;
64684;SDS011;51109;47.414;18.954;2022-12-18T05:58:02;7.55;;;3.63;;
64684;SDS011;51109;47.414;18.954;2022-12-18T06:00:29;14.57;;;5.40;;
64684;SDS011;51109;47.414;18.954;2022-12-18T06:02:57;20.70;;;6.55;;
64684;SDS011;51109;47.414;18.954;2022-12-18T06:05:24;12.13;;;5.05;;
64684;SDS011;51109;47.414;18.954;2022-12-18T06:07:50;4.60;;;2.97;;
64684;SDS011;51109;47.414;18.954;2022-12-18T06:10:16;11.32;;;5.20;;
64684;SDS011;51109;47.414;18.954;2022-12-18T06:12:42;6.30;;;2.80;;
64684;SDS011;51109;47.414;18.954;2022-12-18T06:15:08;9.68;;;5.15;;
64684;SDS011;51109;47.414;18.954;2022-12-18T06:17:35;6.45;;;4.80;;
64684;SDS011;51109;47.414;18.954;2022-12-18T06:20:01;7.50;;;5.38;;
64684;SDS011;51109;47.414;18.954;2022-12-18T06:22:27;6.38;;;3.20;;
64684;SDS011;51109;47.414;18.954;2022-12-18T06:24:55;4.22;;;3.92;;
64684;SDS011;51109;47.414;18.954;2022-12-18T06:27:21;8.85;;;5.53;;
64684;SDS011;51109;47.414;18.954;2022-12-18T06:29:47;2.55;;;2.45;;
64684;SDS011;51109;47.414;18.954;2022-12-18T06:32:13;7.28;;;4.63;;
64684;SDS011;51109;47.414;18.954;2022-12-18T06:34:39;15.73;;;6.68;;
64684;SDS011;51109;47.414;18.954;2022-12-18T06:37:05;14.38;;;5.55;;
64684;SDS011;51109;47.414;18.954;2022-12-18T06:39:31;8.07;;;5.05;;
64684;SDS011;51109;47.414;18.954;2022-12-18T06:41:57;13.10;;;6.93;;
64684;SDS011;51109;47.414;18.954;2022-12-18T06:44:23;16.17;;;4.90;;
64684;SDS011;51109;47.414;18.954;2022-12-18T06:46:48;4.40;;;2.05;;
64684;SDS011;51109;47.414;18.954;2022-12-18T06:49:15;2.53;;;2.33;;
64684;SDS011;51109;47.414;18.954;2022-12-18T06:51:41;5.63;;;2.95;;
64684;SDS011;51109;47.414;18.954;2022-12-18T06:54:07;1.15;;;1.15;;
64684;SDS011;51109;47.414;18.954;2022-12-18T06:56:33;8.70;;;4.72;;
64684;SDS011;51109;47.414;18.954;2022-12-18T06:59:00;4.00;;;3.58;;
64684;SDS011;51109;47.414;18.954;2022-12-18T07:01:26;7.40;;;4.57;;
64684;SDS011;51109;47.414;18.954;2022-12-18T07:03:53;17.05;;;7.28;;
64684;SDS011;51109;47.414;18.954;2022-12-18T07:06:21;6.47;;;4.10;;
64684;SDS011;51109;47.414;18.954;2022-12-18T07:08:49;7.55;;;3.72;;
64684;SDS011;51109;47.414;18.954;2022-12-18T07:11:15;7.30;;;5.00;;
64684;SDS011;51109;47.414;18.954;2022-12-18T07:13:42;15.93;;;8.55;;
64684;SDS011;51109;47.414;18.954;2022-12-18T07:16:09;12.93;;;6.55;;
64684;SDS011;51109;47.414;18.954;2022-12-18T07:18:37;10.05;;;3.42;;
64684;SDS011;51109;47.414;18.954;2022-12-18T07:21:07;10.23;;;3.88;;
64684;SDS011;51109;47.414;18.954;2022-12-18T07:23:35;12.68;;;7.28;;
64684;SDS011;51109;47.414;18.954;2022-12-18T07:26:05;12.25;;;7.80;;
64684;SDS011;51109;47.414;18.954;2022-12-18T07:28:32;17.38;;;7.75;;
64684;SDS011;51109;47.414;18.954;2022-12-18T07:31:08;16.80;;;7.03;;
64684;SDS011;51109;47.414;18.954;2022-12-18T07:33:36;13.25;;;8.18;;
64684;SDS011;51109;47.414;18.954;2022-12-18T07:36:03;9.73;;;7.20;;
64684;SDS011;51109;47.414;18.954;2022-12-18T07:38:30;7.75;;;2.83;;
64684;SDS011;51109;47.414;18.954;2022-12-18T07:41:00;14.25;;;5.85;;
64684;SDS011;51109;47.414;18.954;2022-12-18T07:43:27;10.70;;;7.75;;
64684;SDS011;51109;47.414;18.954;2022-12-18T07:45:53;14.98;;;7.43;;
64684;SDS011;51109;47.414;18.954;2022-12-18T07:48:19;19.35;;;6.35;;
64684;SDS011;51109;47.414;18.954;2022-12-18T07:50:45;13.70;;;8.52;;
64684;SDS011;51109;47.414;18.954;2022-12-18T07:53:11;6.95;;;6.07;;
64684;SDS011;51109;47.414;18.954;2022-12-18T07:55:37;30.25;;;12.88;;
64684;SDS011;51109;47.414;18.954;2022-12-18T07:58:03;12.90;;;7.18;;
64684;SDS011;51109;47.414;18.954;2022-12-18T08:00:30;19.42;;;7.57;;
64684;SDS011;51109;47.414;18.954;2022-12-18T08:02:56;12.48;;;7.75;;
64684;SDS011;51109;47.414;18.954;2022-12-18T08:05:22;11.52;;;7.75;;
64684;SDS011;51109;47.414;18.954;2022-12-18T08:07:49;20.60;;;7.78;;
64684;SDS011;51109;47.414;18.954;2022-12-18T08:10:15;18.55;;;9.43;;
64684;SDS011;51109;47.414;18.954;2022-12-18T08:12:41;9.55;;;4.65;;
64684;SDS011;51109;47.414;18.954;2022-12-18T08:15:08;15.45;;;8.23;;
64684;SDS011;51109;47.414;18.954;2022-12-18T08:17:34;14.05;;;5.90;;
64684;SDS011;51109;47.414;18.954;2022-12-18T08:20:00;22.90;;;7.63;;
64684;SDS011;51109;47.414;18.954;2022-12-18T08:22:26;18.33;;;9.05;;
64684;SDS011;51109;47.414;18.954;2022-12-18T08:24:52;15.63;;;5.78;;
64684;SDS011;51109;47.414;18.954;2022-12-18T08:27:18;18.30;;;7.45;;
64684;SDS011;51109;47.414;18.954;2022-12-18T08:29:44;11.55;;;5.55;;
64684;SDS011;51109;47.414;18.954;2022-12-18T08:32:10;18.35;;;8.80;;
64684;SDS011;51109;47.414;18.954;2022-12-18T08:34:36;17.83;;;7.88;;
64684;SDS011;51109;47.414;18.954;2022-12-18T08:37:02;23.42;;;7.88;;
64684;SDS011;51109;47.414;18.954;2022-12-18T08:39:27;14.98;;;7.50;;
64684;SDS011;51109;47.414;18.954;2022-12-18T08:41:55;10.52;;;5.60;;
64684;SDS011;51109;47.414;18.954;2022-12-18T08:44:39;16.90;;;7.93;;
64684;SDS011;51109;47.414;18.954;2022-12-18T08:47:06;14.25;;;6.97;;
64684;SDS011;51109;47.414;18.954;2022-12-18T08:49:33;16.92;;;7.47;;
64684;SDS011;51109;47.414;18.954;2022-12-18T08:51:59;17.42;;;7.20;;
64684;SDS011;51109;47.414;18.954;2022-12-18T08:54:26;13.57;;;7.78;;
64684;SDS011;51109;47.414;18.954;2022-12-18T08:56:53;25.95;;;7.70;;
64684;SDS011;51109;47.414;18.954;2022-12-18T08:59:19;33.65;;;9.43;;
64684;SDS011;51109;47.414;18.954;2022-12-18T09:01:45;14.07;;;7.63;;
64684;SDS011;51109;47.414;18.954;2022-12-18T09:04:12;19.45;;;8.60;;
64684;SDS011;51109;47.414;18.954;2022-12-18T09:06:39;20.75;;;7.63;;
64684;SDS011;51109;47.414;18.954;2022-12-18T09:09:05;24.25;;;8.55;;
64684;SDS011;51109;47.414;18.954;2022-12-18T09:11:32;17.92;;;6.07;;
64684;SDS011;51109;47.414;18.954;2022-12-18T09:13:59;19.92;;;7.53;;
64684;SDS011;51109;47.414;18.954;2022-12-18T09:16:26;25.42;;;8.85;;
64684;SDS011;51109;47.414;18.954;2022-12-18T09:18:56;9.65;;;4.95;;
64684;SDS011;51109;47.414;18.954;2022-12-18T09:21:25;18.15;;;7.18;;
64684;SDS011;51109;47.414;18.954;2022-12-18T09:23:53;19.92;;;7.07;;
64684;SDS011;51109;47.414;18.954;2022-12-18T09:26:20;13.27;;;6.75;;
64684;SDS011;51109;47.414;18.954;2022-12-18T09:28:48;24.38;;;8.70;;
64684;SDS011;51109;47.414;18.954;2022-12-18T09:31:14;23.58;;;9.48;;
64684;SDS011;51109;47.414;18.954;2022-12-18T09:33:43;21.98;;;7.68;;
64684;SDS011;51109;47.414;18.954;2022-12-18T09:36:11;19.00;;;6.72;;
64684;SDS011;51109;47.414;18.954;2022-12-18T09:38:39;21.17;;;7.55;;
64684;SDS011;51109;47.414;18.954;2022-12-18T09:41:06;14.70;;;7.57;;
64684;SDS011;51109;47.414;18.954;2022-12-18T09:46:47;10.43;;;5.25;;
64684;SDS011;51109;47.414;18.954;2022-12-18T09:49:34;20.67;;;7.65;;
64684;SDS011;51109;47.414;18.954;2022-12-18T09:52:21;5.63;;;3.33;;
64684;SDS011;51109;47.414;18.954;2022-12-18T09:54:56;19.30;;;8.20;;
64684;SDS011;51109;47.414;18.954;2022-12-18T09:57:33;23.88;;;7.95;;
64684;SDS011;51109;47.414;18.954;2022-12-18T10:00:09;15.52;;;7.88;;
64684;SDS011;51109;47.414;18.954;2022-12-18T10:02:47;22.33;;;7.07;;
64684;SDS011;51109;47.414;18.954;2022-12-18T10:05:16;25.58;;;8.73;;
64684;SDS011;51109;47.414;18.954;2022-12-18T10:13:58;11.80;;;4.75;;
64684;SDS011;51109;47.414;18.954;2022-12-18T10:16:56;15.05;;;7.82;;
64684;SDS011;51109;47.414;18.954;2022-12-18T10:27:27;11.65;;;5.40;;
64684;SDS011;51109;47.414;18.954;2022-12-18T10:29:54;15.77;;;6.82;;
64684;SDS011;51109;47.414;18.954;2022-12-18T10:32:21;20.33;;;6.43;;
64684;SDS011;51109;47.414;18.954;2022-12-18T10:34:54;9.35;;;5.10;;
64684;SDS011;51109;47.414;18.954;2022-12-18T10:37:23;16.40;;;8.07;;
64684;SDS011;51109;47.414;18.954;2022-12-18T10:42:36;18.80;;;7.05;;
64684;SDS011;51109;47.414;18.954;2022-12-18T10:45:05;21.25;;;8.65;;
64684;SDS011;51109;47.414;18.954;2022-12-18T10:47:46;16.10;;;6.47;;
64684;SDS011;51109;47.414;18.954;2022-12-18T10:50:50;17.58;;;7.20;;
64684;SDS011;51109;47.414;18.954;2022-12-18T10:53:13;21.98;;;7.93;;
64684;SDS011;51109;47.414;18.954;2022-12-18T10:55:49;15.57;;;5.90;;
64684;SDS011;51109;47.414;18.954;2022-12-18T10:58:29;17.55;;;7.22;;
64684;SDS011;51109;47.414;18.954;2022-12-18T11:01:05;14.77;;;5.00;;
64684;SDS011;51109;47.414;18.954;2022-12-18T11:06:02;20.33;;;7.72;;
64684;SDS011;51109;47.414;18.954;2022-12-18T11:08:28;20.95;;;9.02;;
64684;SDS011;51109;47.414;18.954;2022-12-18T11:10:54;19.17;;;6.65;;
64684;SDS011;51109;47.414;18.954;2022-12-18T11:13:21;20.80;;;6.43;;
64684;SDS011;51109;47.414;18.954;2022-12-18T11:15:49;22.80;;;7.25;;
64684;SDS011;51109;47.414;18.954;2022-12-18T11:18:16;20.95;;;7.90;;
64684;SDS011;51109;47.414;18.954;2022-12-18T11:21:07;27.38;;;10.82;;
64684;SDS011;51109;47.414;18.954;2022-12-18T11:23:44;8.00;;;3.80;;
64684;SDS011;51109;47.414;18.954;2022-12-18T11:26:14;16.77;;;8.10;;
64684;SDS011;51109;47.414;18.954;2022-12-18T11:28:45;21.05;;;8.70;;
64684;SDS011;51109;47.414;18.954;2022-12-18T11:33:41;16.83;;;7.43;;
64684;SDS011;51109;47.414;18.954;2022-12-18T11:36:12;21.10;;;7.55;;
64684;SDS011;51109;47.414;18.954;2022-12-18T11:38:40;14.20;;;7.60;;
64684;SDS011;51109;47.414;18.954;2022-12-18T11:44:14;27.58;;;8.13;;
64684;SDS011;51109;47.414;18.954;2022-12-18T11:46:47;34.97;;;9.82;;
64684;SDS011;51109;47.414;18.954;2022-12-18T11:49:22;19.13;;;7.72;;
64684;SDS011;51109;47.414;18.954;2022-12-18T11:54:29;17.05;;;5.57;;
64684;SDS011;51109;47.414;18.954;2022-12-18T11:56:56;12.75;;;6.40;;
64684;SDS011;51109;47.414;18.954;2022-12-18T12:02:20;10.68;;;6.55;;
64684;SDS011;51109;47.414;18.954;2022-12-18T12:07:34;16.25;;;7.07;;
64684;SDS011;51109;47.414;18.954;2022-12-18T12:16:16;25.65;;;8.27;;
64684;SDS011;51109;47.414;18.954;2022-12-18T12:18:53;22.30;;;6.70;;
64684;SDS011;51109;47.414;18.954;2022-12-18T12:34:53;26.15;;;7.80;;
64684;SDS011;51109;47.414;18.954;2022-12-18T12:39:58;22.90;;;9.05;;
64684;SDS011;51109;47.414;18.954;2022-12-18T12:48:15;27.98;;;9.55;;
64684;SDS011;51109;47.414;18.954;2022-12-18T12:50:56;26.52;;;9.88;;
64684;SDS011;51109;47.414;18.954;2022-12-18T12:53:29;26.23;;;10.05;;
64684;SDS011;51109;47.414;18.954;2022-12-18T12:55:59;26.15;;;9.68;;
64684;SDS011;51109;47.414;18.954;2022-12-18T12:58:32;32.08;;;11.20;;
64684;SDS011;51109;47.414;18.954;2022-12-18T13:03:54;22.73;;;10.10;;
64684;SDS011;51109;47.414;18.954;2022-12-18T13:08:56;21.40;;;9.50;;
64684;SDS011;51109;47.414;18.954;2022-12-18T13:14:32;34.43;;;11.63;;
64684;SDS011;51109;47.414;18.954;2022-12-18T13:17:16;22.30;;;10.77;;
64684;SDS011;51109;47.414;18.954;2022-12-18T13:19:52;24.35;;;8.38;;
64684;SDS011;51109;47.414;18.954;2022-12-18T13:27:59;21.48;;;9.40;;
64684;SDS011;51109;47.414;18.954;2022-12-18T13:35:42;28.00;;;10.98;;
64684;SDS011;51109;47.414;18.954;2022-12-18T13:38:45;28.08;;;8.80;;
64684;SDS011;51109;47.414;18.954;2022-12-18T13:43:52;35.55;;;13.40;;
64684;SDS011;51109;47.414;18.954;2022-12-18T13:46:44;38.83;;;13.35;;
64684;SDS011;51109;47.414;18.954;2022-12-18T13:49:35;29.98;;;10.50;;
64684;SDS011;51109;47.414;18.954;2022-12-18T13:52:02;26.02;;;10.27;;
64684;SDS011;51109;47.414;18.954;2022-12-18T13:54:39;25.00;;;8.63;;
64684;SDS011;51109;47.414;18.954;2022-12-18T13:57:25;24.45;;;9.45;;
64684;SDS011;51109;47.414;18.954;2022-12-18T13:59:52;19.02;;;8.55;;
64684;SDS011;51109;47.414;18.954;2022-12-18T14:02:20;36.72;;;10.70;;
64684;SDS011;51109;47.414;18.954;2022-12-18T14:04:51;19.75;;;7.60;;
64684;SDS011;51109;47.414;18.954;2022-12-18T14:07:24;28.52;;;9.68;;
64684;SDS011;51109;47.414;18.954;2022-12-18T14:09:54;29.25;;;10.43;;
64684;SDS011;51109;47.414;18.954;2022-12-18T14:12:32;33.70;;;12.25;;
64684;SDS011;51109;47.414;18.954;2022-12-18T14:18:03;19.98;;;9.90;;
64684;SDS011;51109;47.414;18.954;2022-12-18T14:20:51;34.60;;;12.27;;
64684;SDS011;51109;47.414;18.954;2022-12-18T14:23:34;26.50;;;9.25;;
64684;SDS011;51109;47.414;18.954;2022-12-18T14:28:49;22.58;;;8.48;;
64684;SDS011;51109;47.414;18.954;2022-12-18T14:31:19;24.13;;;11.13;;
64684;SDS011;51109;47.414;18.954;2022-12-18T14:33:46;29.55;;;9.27;;
64684;SDS011;51109;47.414;18.954;2022-12-18T14:36:15;27.13;;;9.80;;
64684;SDS011;51109;47.414;18.954;2022-12-18T14:38:43;30.65;;;10.88;;
64684;SDS011;51109;47.414;18.954;2022-12-18T14:41:13;21.65;;;8.23;;
64684;SDS011;51109;47.414;18.954;2022-12-18T14:43:41;25.90;;;8.88;;
64684;SDS011;51109;47.414;18.954;2022-12-18T14:49:04;25.63;;;8.15;;
64684;SDS011;51109;47.414;18.954;2022-12-18T14:52:19;22.67;;;8.65;;
64684;SDS011;51109;47.414;18.954;2022-12-18T14:54:54;22.05;;;9.63;;
64684;SDS011;51109;47.414;18.954;2022-12-18T14:57:24;24.05;;;7.30;;
64684;SDS011;51109;47.414;18.954;2022-12-18T14:59:55;17.08;;;6.82;;
64684;SDS011;51109;47.414;18.954;2022-12-18T15:02:30;26.55;;;9.07;;
64684;SDS011;51109;47.414;18.954;2022-12-18T15:05:00;25.73;;;9.18;;
64684;SDS011;51109;47.414;18.954;2022-12-18T15:07:26;28.98;;;8.32;;
64684;SDS011;51109;47.414;18.954;2022-12-18T15:12:34;26.80;;;6.85;;
64684;SDS011;51109;47.414;18.954;2022-12-18T15:15:02;24.48;;;9.05;;
64684;SDS011;51109;47.414;18.954;2022-12-18T15:17:31;17.05;;;8.65;;
64684;SDS011;51109;47.414;18.954;2022-12-18T15:20:01;19.10;;;6.15;;
64684;SDS011;51109;47.414;18.954;2022-12-18T15:22:34;16.67;;;8.48;;
64684;SDS011;51109;47.414;18.954;2022-12-18T15:25:02;15.10;;;7.82;;
64684;SDS011;51109;47.414;18.954;2022-12-18T15:27:45;12.82;;;6.22;;
64684;SDS011;51109;47.414;18.954;2022-12-18T15:30:19;27.33;;;10.45;;
64684;SDS011;51109;47.414;18.954;2022-12-18T15:32:47;25.27;;;8.63;;
64684;SDS011;51109;47.414;18.954;2022-12-18T15:37:40;11.23;;;6.22;;
64684;SDS011;51109;47.414;18.954;2022-12-18T15:40:07;14.82;;;8.30;;
64684;SDS011;51109;47.414;18.954;2022-12-18T15:42:37;16.38;;;8.27;;
64684;SDS011;51109;47.414;18.954;2022-12-18T15:45:22;19.73;;;9.93;;
64684;SDS011;51109;47.414;18.954;2022-12-18T15:47:48;27.40;;;8.15;;
64684;SDS011;51109;47.414;18.954;2022-12-18T15:50:14;26.25;;;9.85;;
64684;SDS011;51109;47.414;18.954;2022-12-18T15:52:41;18.48;;;8.45;;
64684;SDS011;51109;47.414;18.954;2022-12-18T15:55:11;38.47;;;12.30;;
64684;SDS011;51109;47.414;18.954;2022-12-18T15:57:57;28.63;;;10.80;;
64684;SDS011;51109;47.414;18.954;2022-12-18T16:00:24;42.33;;;13.15;;
64684;SDS011;51109;47.414;18.954;2022-12-18T16:02:50;29.92;;;12.50;;
64684;SDS011;51109;47.414;18.954;2022-12-18T16:05:17;28.25;;;13.65;;
64684;SDS011;51109;47.414;18.954;2022-12-18T16:07:46;21.15;;;10.00;;
64684;SDS011;51109;47.414;18.954;2022-12-18T16:10:12;38.05;;;10.80;;
64684;SDS011;51109;47.414;18.954;2022-12-18T16:12:39;18.25;;;8.00;;
64684;SDS011;51109;47.414;18.954;2022-12-18T16:15:06;15.93;;;8.45;;
64684;SDS011;51109;47.414;18.954;2022-12-18T16:17:33;20.65;;;9.45;;
64684;SDS011;51109;47.414;18.954;2022-12-18T16:19:59;18.35;;;7.13;;
64684;SDS011;51109;47.414;18.954;2022-12-18T16:22:26;29.45;;;9.93;;
64684;SDS011;51109;47.414;18.954;2022-12-18T16:24:55;15.23;;;6.95;;
64684;SDS011;51109;47.414;18.954;2022-12-18T16:27:22;16.42;;;7.43;;
64684;SDS011;51109;47.414;18.954;2022-12-18T16:29:49;26.77;;;9.25;;
64684;SDS011;51109;47.414;18.954;2022-12-18T16:32:17;17.13;;;8.73;;
64684;SDS011;51109;47.414;18.954;2022-12-18T16:34:44;18.38;;;8.95;;
64684;SDS011;51109;47.414;18.954;2022-12-18T16:37:11;18.00;;;9.13;;
64684;SDS011;51109;47.414;18.954;2022-12-18T16:39:39;26.67;;;10.80;;
64684;SDS011;51109;47.414;18.954;2022-12-18T16:42:08;27.98;;;9.00;;
64684;SDS011;51109;47.414;18.954;2022-12-18T16:44:41;19.00;;;9.45;;
64684;SDS011;51109;47.414;18.954;2022-12-18T16:47:08;25.67;;;9.98;;